Time;durP1;ratioP1;P1;durP2;ratioP2;P2;SDS_P1;SDS_P2;PMS_P1;PMS_P2;Temp;Humidity;BMP_temperature;BMP_pressure;BME280_temperature;BME280_humidity;BME280_pressure;Samples;Min_cycle;Max_cycle;Signal;HPM_P1;HPM_P2
2023/10/01 00:00:22;;;;;;;10.45;5.38;;;;;;;13.24;60.04;96591.25;5135025;27;20043;-62
2023/10/01 00:02:49;;;;;;;7.75;5.00;;;;;;;13.25;60.38;96595.56;5134661;27;20051;-62
2023/10/01 00:05:16;;;;;;;13.35;4.50;;;;;;;13.26;60.54;96585.91;5134807;27;20613;-62
2023/10/01 00:07:43;;;;;;;6.75;5.18;;;;;;;13.29;60.45;96588.41;5134820;27;20047;-62
2023/10/01 00:10:13;;;;;;;7.07;5.75;;;;;;;13.28;60.49;96578.81;5134650;27;20500;-62
2023/10/01 00:12:41;;;;;;;8.85;5.25;;;;;;;13.24;60.45;96580.72;5134779;27;20126;-62
2023/10/01 00:15:12;;;;;;;19.05;5.85;;;;;;;13.24;60.67;96578.09;5134586;27;20058;-62
2023/10/01 00:17:40;;;;;;;12.30;4.82;;;;;;;13.24;60.74;96582.50;5134565;27;20047;-62
2023/10/01 00:20:16;;;;;;;14.48;4.93;;;;;;;13.23;60.61;96580.81;5134521;27;20527;-62
2023/10/01 00:22:45;;;;;;;9.48;5.40;;;;;;;13.22;60.90;96576.50;5134448;27;20054;-62
2023/10/01 00:25:12;;;;;;;6.32;5.18;;;;;;;13.18;61.17;96574.94;5134530;27;20058;-62
2023/10/01 00:27:40;;;;;;;7.43;4.80;;;;;;;13.19;60.91;96572.25;5134441;27;20043;-62
2023/10/01 00:30:11;;;;;;;10.65;5.22;;;;;;;13.11;61.05;96577.84;5134527;27;20047;-62
2023/10/01 00:32:39;;;;;;;9.18;5.28;;;;;;;13.08;61.49;96578.00;5134346;27;20084;-62
2023/10/01 00:35:07;;;;;;;10.30;5.05;;;;;;;13.01;61.55;96566.91;5134173;27;20134;-62
2023/10/01 00:37:35;;;;;;;10.23;5.63;;;;;;;12.94;61.95;96562.88;5134401;27;20088;-62
2023/10/01 00:40:05;;;;;;;15.50;5.50;;;;;;;12.91;62.17;96564.81;5134276;27;20096;-62
2023/10/01 00:42:34;;;;;;;11.98;5.82;;;;;;;12.89;62.21;96570.16;5134314;27;20133;-62
2023/10/01 00:45:02;;;;;;;8.95;5.43;;;;;;;12.85;62.31;96561.53;5134244;27;20122;-62
2023/10/01 00:47:32;;;;;;;9.05;5.60;;;;;;;12.83;62.50;96557.31;5134523;27;20062;-62
2023/10/01 00:50:01;;;;;;;11.95;5.70;;;;;;;12.79;62.55;96564.44;5134342;27;20043;-62
2023/10/01 00:52:30;;;;;;;8.60;5.38;;;;;;;12.74;62.35;96563.84;5134213;27;20043;-62
2023/10/01 00:54:57;;;;;;;12.02;5.40;;;;;;;12.84;62.45;96559.84;5134029;28;20488;-62
2023/10/01 00:57:25;;;;;;;7.85;5.10;;;;;;;12.92;62.38;96554.25;5134111;28;20073;-62
2023/10/01 00:59:52;;;;;;;11.25;5.35;;;;;;;13.04;62.03;96560.69;5134038;27;20078;-62
2023/10/01 01:02:22;;;;;;;10.55;4.47;;;;;;;13.37;61.21;96554.72;5133806;28;20051;-62
2023/10/01 01:07:35;;;;;;;8.15;4.75;;;;;;;13.86;59.42;96553.22;5134060;27;20557;-62
2023/10/01 01:10:03;;;;;;;12.38;4.40;;;;;;;14.09;58.13;96545.06;5138212;27;20404;-62
2023/10/01 01:12:32;;;;;;;11.07;4.72;;;;;;;14.32;56.99;96541.22;5138284;27;20039;-62
2023/10/01 01:14:59;;;;;;;14.27;4.53;;;;;;;14.55;56.11;96541.78;5138412;27;20130;-62
2023/10/01 01:17:26;;;;;;;13.27;4.38;;;;;;;14.82;54.92;96541.25;5138085;27;20075;-61
2023/10/01 01:19:55;;;;;;;15.98;4.93;;;;;;;15.00;54.60;96543.78;5137979;27;20083;-62
2023/10/01 01:22:29;;;;;;;7.05;4.10;;;;;;;15.16;53.43;96547.25;5138028;27;20047;-62
2023/10/01 01:25:00;;;;;;;10.85;4.20;;;;;;;15.31;53.58;96541.19;5137916;27;20480;-62
2023/10/01 01:27:31;;;;;;;12.13;4.82;;;;;;;15.38;53.47;96540.75;5137943;27;20047;-62
2023/10/01 01:29:58;;;;;;;9.00;4.40;;;;;;;15.44;53.40;96539.53;5138053;27;20047;-62
2023/10/01 01:32:25;;;;;;;9.88;4.38;;;;;;;15.51;53.62;96532.97;5137880;27;20150;-61
2023/10/01 01:34:54;;;;;;;12.40;5.40;;;;;;;15.47;53.80;96539.34;5137664;27;20062;-62
2023/10/01 01:37:30;;;;;;;9.95;4.45;;;;;;;15.43;54.23;96534.34;5137721;27;20051;-62
2023/10/01 01:39:59;;;;;;;13.07;4.20;;;;;;;15.39;54.51;96533.69;5137706;27;20047;-62
2023/10/01 01:42:28;;;;;;;8.55;4.20;;;;;;;15.32;54.99;96527.91;5137572;27;20049;-62
2023/10/01 01:47:36;;;;;;;9.73;4.88;;;;;;;15.06;55.93;96537.31;5137320;27;20047;-62
2023/10/01 01:50:17;;;;;;;10.35;4.50;;;;;;;14.91;56.61;96540.69;5137827;27;20137;-62
2023/10/01 01:52:47;;;;;;;12.50;5.00;;;;;;;14.67;57.19;96532.38;5137379;27;20047;-62
2023/10/01 01:55:30;;;;;;;10.98;4.40;;;;;;;14.55;57.10;96528.63;5137290;27;20134;-62
2023/10/01 01:58:08;;;;;;;8.30;4.28;;;;;;;14.57;56.72;96520.63;5137438;27;20050;-62
2023/10/01 02:00:37;;;;;;;12.32;4.80;;;;;;;14.68;56.32;96523.53;5137302;27;20043;-62
2023/10/01 02:03:14;;;;;;;15.48;4.93;;;;;;;14.78;56.16;96527.38;5137152;27;20066;-62
2023/10/01 02:05:42;;;;;;;12.73;5.28;;;;;;;14.80;55.45;96527.28;5137176;27;20126;-62
2023/10/01 02:08:11;;;;;;;14.70;4.88;;;;;;;14.95;55.17;96527.38;5137253;27;20050;-62
2023/10/01 02:10:45;;;;;;;12.23;4.43;;;;;;;15.08;54.10;96530.19;5137134;27;20047;-62
2023/10/01 02:13:16;;;;;;;7.57;4.10;;;;;;;15.24;53.96;96530.16;5137002;27;20400;-62
2023/10/01 02:15:46;;;;;;;10.70;4.03;;;;;;;15.40;53.02;96524.84;5136835;27;20054;-62
2023/10/01 02:18:16;;;;;;;5.15;4.07;;;;;;;15.51;53.63;96532.13;5136868;27;20057;-62
2023/10/01 02:20:45;;;;;;;10.70;4.97;;;;;;;15.50;53.32;96522.53;5135756;27;20043;-62
2023/10/01 02:23:17;;;;;;;14.10;4.43;;;;;;;15.56;53.24;96529.25;5136779;27;20362;-62
2023/10/01 02:25:46;;;;;;;11.90;4.68;;;;;;;15.60;53.34;96523.69;5136763;27;20043;-62
2023/10/01 02:28:15;;;;;;;9.50;4.55;;;;;;;15.61;54.05;96529.81;5136726;27;20062;-62
2023/10/01 02:30:44;;;;;;;10.18;5.57;;;;;;;15.55;53.59;96528.38;5136738;27;20039;-62
2023/10/01 02:33:18;;;;;;;8.80;4.28;;;;;;;15.51;55.19;96532.13;5136636;27;20075;-62
2023/10/01 02:35:48;;;;;;;6.82;4.63;;;;;;;15.33;54.96;96529.63;5136539;27;20497;-62
2023/10/01 02:41:08;;;;;;;11.32;5.10;;;;;;;14.86;55.34;96532.22;5136688;27;20516;-62
2023/10/01 02:43:35;;;;;;;7.50;5.43;;;;;;;14.67;56.05;96527.09;5136543;27;20492;-62
2023/10/01 02:46:09;;;;;;;9.45;5.22;;;;;;;14.43;56.35;96529.28;5136335;27;20051;-62
2023/10/01 02:48:36;;;;;;;8.77;5.20;;;;;;;14.28;56.23;96529.16;5136265;27;20137;-62
2023/10/01 02:51:15;;;;;;;6.97;4.90;;;;;;;14.17;56.52;96524.47;5136231;27;20059;-62
2023/10/01 02:53:42;;;;;;;14.52;5.15;;;;;;;14.09;57.07;96519.59;5136288;27;20047;-62
2023/10/01 02:56:16;;;;;;;12.35;4.53;;;;;;;14.07;58.05;96521.47;5136208;27;20043;-62
2023/10/01 02:58:49;;;;;;;8.00;4.78;;;;;;;13.99;58.23;96521.03;5136045;27;20496;-62
2023/10/01 03:01:17;;;;;;;8.63;4.85;;;;;;;14.06;57.98;96518.94;5136115;27;20104;-62
2023/10/01 03:03:44;;;;;;;9.65;5.22;;;;;;;14.08;58.55;96520.53;5135880;27;20051;-62
2023/10/01 03:06:11;;;;;;;7.88;4.43;;;;;;;14.11;58.54;96522.16;5136070;27;20051;-62
2023/10/01 03:08:59;;;;;;;7.20;4.45;;;;;;;14.17;58.12;96518.38;5135883;27;20374;-62
2023/10/01 03:11:37;;;;;;;5.85;4.30;;;;;;;14.23;57.67;96516.25;5135988;27;20053;-62
2023/10/01 03:14:10;;;;;;;8.93;4.45;;;;;;;14.38;56.67;96521.63;5135850;27;20565;-62
2023/10/01 03:16:44;;;;;;;9.50;4.97;;;;;;;14.59;56.10;96521.38;5135712;27;20416;-62
2023/10/01 03:19:18;;;;;;;8.25;4.50;;;;;;;14.74;55.30;96531.09;5135916;27;20047;-62
2023/10/01 03:24:32;;;;;;;14.85;4.68;;;;;;;15.13;54.29;96533.38;5135780;27;20049;-62
2023/10/01 03:27:18;;;;;;;5.32;4.55;;;;;;;15.26;53.91;96533.56;5135578;27;20083;-62
2023/10/01 03:29:48;;;;;;;9.60;4.25;;;;;;;15.39;53.34;96534.53;5135570;27;20047;-62
2023/10/01 03:32:32;;;;;;;13.97;4.93;;;;;;;15.54;52.87;96540.69;5135311;27;20042;-62
2023/10/01 03:35:06;;;;;;;8.38;4.22;;;;;;;15.71;52.52;96543.31;5135345;27;20051;-62
2023/10/01 03:37:38;;;;;;;17.80;4.90;;;;;;;15.77;51.78;96548.19;5135380;27;20055;-62
2023/10/01 03:40:10;;;;;;;13.73;4.32;;;;;;;15.85;51.88;96551.25;5135279;27;20054;-62
2023/10/01 03:42:39;;;;;;;8.23;4.25;;;;;;;15.90;52.01;96549.16;5135312;27;20047;-62
2023/10/01 03:45:36;;;;;;;11.88;4.38;;;;;;;15.96;51.37;96555.94;5135207;27;20485;-62
2023/10/01 03:48:06;;;;;;;8.32;4.18;;;;;;;16.07;50.93;96552.63;5135235;27;20054;-62
2023/10/01 03:50:44;;;;;;;5.35;4.15;;;;;;;16.15;50.64;96554.81;5135108;27;20051;-62
2023/10/01 03:53:13;;;;;;;5.03;3.85;;;;;;;16.23;50.62;96549.06;5135026;27;20054;-62
2023/10/01 03:55:46;;;;;;;12.18;4.38;;;;;;;16.27;50.27;96561.13;5134893;27;20107;-62
2023/10/01 03:58:25;;;;;;;9.00;4.28;;;;;;;16.32;50.09;96556.44;5134927;27;20481;-62
2023/10/01 04:00:54;;;;;;;12.40;4.85;;;;;;;16.31;50.44;96554.72;5134904;27;20043;-62
2023/10/01 04:03:22;;;;;;;7.40;5.15;;;;;;;16.27;50.46;96553.22;5134512;27;20409;-62
2023/10/01 04:05:56;;;;;;;7.95;4.18;;;;;;;16.25;50.35;96555.94;5134967;27;20134;-62
2023/10/01 04:08:23;;;;;;;9.02;4.18;;;;;;;16.26;50.24;96555.00;5134784;27;20140;-62
2023/10/01 04:10:58;;;;;;;7.43;4.40;;;;;;;16.30;50.12;96553.03;5134880;27;20082;-62
2023/10/01 04:13:27;;;;;;;15.25;4.90;;;;;;;16.30;49.97;96555.66;5134722;27;20480;-62
2023/10/01 04:16:07;;;;;;;9.23;3.97;;;;;;;16.31;50.45;96556.53;5134609;27;20143;-62
2023/10/01 04:18:36;;;;;;;6.85;4.22;;;;;;;16.26;50.14;96559.44;5134637;27;20043;-62
2023/10/01 04:23:54;;;;;;;7.13;4.63;;;;;;;16.19;50.50;96556.31;5112596;27;20050;-62
2023/10/01 04:26:23;;;;;;;10.40;4.65;;;;;;;16.20;50.18;96559.81;5134533;27;20043;-62
2023/10/01 04:28:54;;;;;;;8.20;4.40;;;;;;;16.19;50.31;96555.47;5134489;27;20039;-62
2023/10/01 04:31:42;;;;;;;9.75;5.70;;;;;;;16.23;50.19;96557.84;5134462;27;20066;-62
2023/10/01 04:34:11;;;;;;;7.05;4.63;;;;;;;16.27;50.20;96556.72;5134278;27;20461;-62
2023/10/01 04:36:39;;;;;;;7.93;4.05;;;;;;;16.26;50.14;96562.06;5134254;27;20043;-62
2023/10/01 04:39:07;;;;;;;7.72;4.45;;;;;;;16.28;50.19;96563.69;5134263;27;20386;-62
2023/10/01 04:41:34;;;;;;;9.75;4.38;;;;;;;16.38;49.79;96566.59;5134221;27;20132;-62
2023/10/01 04:44:07;;;;;;;8.45;4.47;;;;;;;16.45;49.55;96566.22;5133595;27;20045;-62
2023/10/01 04:46:37;;;;;;;9.10;4.30;;;;;;;16.54;49.45;96561.22;5134205;27;20058;-61
2023/10/01 04:49:08;;;;;;;11.45;4.63;;;;;;;16.63;49.36;96575.66;5134088;27;20058;-62
2023/10/01 04:51:45;;;;;;;9.00;4.35;;;;;;;16.70;49.27;96576.09;5134082;27;20079;-62
2023/10/01 04:54:17;;;;;;;11.52;4.45;;;;;;;16.80;49.21;96573.75;5134126;27;20549;-62
2023/10/01 04:56:45;;;;;;;7.93;5.07;;;;;;;16.86;49.17;96577.81;5133994;27;20059;-62
2023/10/01 04:59:14;;;;;;;8.73;3.85;;;;;;;16.96;49.38;96581.56;5134031;28;20055;-62
2023/10/01 05:01:42;;;;;;;8.25;4.50;;;;;;;17.36;49.50;96587.88;5134001;28;20079;-62
2023/10/01 05:04:12;;;;;;;10.25;4.32;;;;;;;18.14;48.13;96586.31;5133851;28;20039;-62
2023/10/01 05:06:43;;;;;;;6.97;4.35;;;;;;;19.12;46.82;96586.69;5134045;28;20039;-62
2023/10/01 05:09:14;;;;;;;6.00;3.78;;;;;;;20.07;44.03;96595.69;5134156;27;20043;-62
2023/10/01 05:11:42;;;;;;;7.38;4.07;;;;;;;20.96;42.45;96594.22;5133983;28;20126;-62
2023/10/01 05:14:12;;;;;;;13.07;4.40;;;;;;;21.77;40.66;96597.56;5133935;28;20104;-62
2023/10/01 05:16:40;;;;;;;6.95;3.88;;;;;;;22.57;39.16;96598.91;5133852;28;20051;-62
2023/10/01 05:19:14;;;;;;;8.13;4.03;;;;;;;23.40;38.30;96605.16;5133983;28;20054;-62
2023/10/01 05:21:47;;;;;;;8.50;3.60;;;;;;;24.14;36.66;96602.97;5134011;28;20047;-62
2023/10/01 05:24:31;;;;;;;7.60;4.10;;;;;;;24.60;35.06;96603.13;5133771;28;20079;-62
2023/10/01 05:27:00;;;;;;;7.90;4.22;;;;;;;25.12;33.07;96601.00;5133836;28;20043;-62
2023/10/01 05:29:28;;;;;;;13.52;3.70;;;;;;;25.75;30.81;96606.56;5133834;28;20039;-63
2023/10/01 05:31:57;;;;;;;14.48;4.30;;;;;;;26.28;31.22;96609.34;5133872;28;20143;-62
2023/10/01 05:34:25;;;;;;;11.30;4.38;;;;;;;26.79;30.50;96603.31;5133732;28;20039;-62
2023/10/01 05:37:08;;;;;;;7.35;4.07;;;;;;;27.22;29.30;96610.59;5133561;28;20047;-63
2023/10/01 05:39:55;;;;;;;6.47;3.60;;;;;;;27.95;29.19;96616.31;5133657;28;20135;-62
2023/10/01 05:42:24;;;;;;;8.02;3.88;;;;;;;28.10;28.01;96615.63;5133722;28;20047;-63
2023/10/01 05:44:52;;;;;;;6.72;4.10;;;;;;;28.49;27.89;96608.75;5133646;28;20047;-63
2023/10/01 05:47:20;;;;;;;13.85;3.95;;;;;;;28.63;27.48;96609.91;5133641;27;20043;-63
2023/10/01 05:49:53;;;;;;;7.38;4.00;;;;;;;28.97;26.56;96618.75;5133596;28;20047;-63
2023/10/01 05:52:21;;;;;;;5.80;3.45;;;;;;;29.70;26.10;96615.06;5133477;28;20043;-63
2023/10/01 05:54:52;;;;;;;7.05;4.40;;;;;;;29.72;25.44;96611.19;5135634;27;20404;-63
2023/10/01 05:57:22;;;;;;;7.53;3.58;;;;;;;30.33;24.30;96616.81;5137231;27;20051;-62
2023/10/01 05:59:56;;;;;;;7.90;4.03;;;;;;;30.58;24.51;96612.03;5137336;27;20043;-63
2023/10/01 06:05:32;;;;;;;5.40;3.78;;;;;;;30.75;24.08;96610.00;5111079;27;20526;-62
2023/10/01 06:08:06;;;;;;;8.27;4.05;;;;;;;31.33;24.39;96621.19;5110885;28;20048;-62
2023/10/01 06:10:35;;;;;;;6.15;3.88;;;;;;;31.60;23.53;96618.84;5110972;28;20455;-62
2023/10/01 06:13:06;;;;;;;3.97;3.47;;;;;;;31.14;22.98;96616.16;5110904;28;20044;-62
2023/10/01 06:15:34;;;;;;;10.05;4.20;;;;;;;30.62;23.57;96616.06;5110829;28;20052;-62
2023/10/01 06:18:05;;;;;;;4.82;3.55;;;;;;;30.75;24.17;96623.50;5110870;28;20048;-62
2023/10/01 06:20:34;;;;;;;4.90;3.88;;;;;;;31.10;23.29;96620.28;5110849;28;20087;-62
2023/10/01 06:23:01;;;;;;;6.40;3.60;;;;;;;31.80;22.60;96619.03;5110569;28;20047;-62
2023/10/01 06:25:41;;;;;;;8.52;3.95;;;;;;;32.28;22.40;96623.03;5110632;28;20409;-62
2023/10/01 06:28:10;;;;;;;8.02;3.85;;;;;;;32.58;22.44;96624.75;5110543;28;20444;-63
2023/10/01 06:30:40;;;;;;;6.32;3.22;;;;;;;32.12;22.90;96624.16;5110549;28;20071;-62
2023/10/01 06:33:24;;;;;;;7.28;4.00;;;;;;;32.06;22.60;96625.78;5110516;28;20055;-62
2023/10/01 06:36:15;;;;;;;12.30;4.35;;;;;;;32.26;22.57;96623.25;5110405;28;20493;-62
2023/10/01 06:38:44;;;;;;;8.43;4.43;;;;;;;31.70;22.34;96623.91;5110416;28;20059;-62
2023/10/01 06:41:16;;;;;;;6.00;4.05;;;;;;;30.83;23.06;96621.75;5110278;28;20135;-62
2023/10/01 06:43:54;;;;;;;8.35;3.90;;;;;;;30.73;23.80;96616.63;5110222;28;20126;-62
2023/10/01 06:46:23;;;;;;;7.97;4.38;;;;;;;30.57;23.89;96617.59;5110358;28;20082;-62
2023/10/01 06:48:51;;;;;;;10.27;4.20;;;;;;;30.77;24.22;96626.91;5110150;28;20438;-62
2023/10/01 06:51:21;;;;;;;8.10;4.13;;;;;;;31.25;24.01;96631.06;5110117;28;20044;-62
2023/10/01 06:53:53;;;;;;;5.47;3.30;;;;;;;31.47;22.94;96633.84;5110072;28;20048;-62
2023/10/01 06:56:21;;;;;;;7.35;4.18;;;;;;;31.60;22.96;96632.34;5110159;28;20086;-62
2023/10/01 07:01:47;;;;;;;12.18;4.07;;;;;;;31.05;23.16;96632.63;5109993;28;20150;-62
2023/10/01 07:04:17;;;;;;;9.25;4.80;;;;;;;30.73;23.47;96630.09;5109606;28;20075;-62
2023/10/01 07:06:50;;;;;;;8.70;4.47;;;;;;;30.59;23.65;96629.06;5109882;28;20481;-62
2023/10/01 07:09:27;;;;;;;11.98;4.13;;;;;;;30.41;24.32;96632.94;5109892;28;20083;-62
2023/10/01 07:11:57;;;;;;;12.23;4.40;;;;;;;30.58;24.03;96633.59;5109717;28;20048;-62
2023/10/01 07:14:43;;;;;;;16.95;4.53;;;;;;;30.60;24.26;96638.81;5109545;28;20048;-62
2023/10/01 07:17:14;;;;;;;11.38;4.10;;;;;;;30.47;24.38;96640.31;5096059;28;20044;-62
2023/10/01 07:19:41;;;;;;;5.95;4.28;;;;;;;29.95;24.24;96648.06;5096070;28;20052;-62
2023/10/01 07:22:14;;;;;;;9.48;4.30;;;;;;;29.39;25.04;96651.75;5095998;28;20056;-62
2023/10/01 07:24:41;;;;;;;6.53;4.38;;;;;;;29.35;25.90;96648.56;5095996;28;20058;-61
2023/10/01 07:27:11;;;;;;;11.35;4.55;;;;;;;29.26;24.79;96655.00;5095904;28;20070;-62
2023/10/01 07:29:42;;;;;;;7.05;4.53;;;;;;;29.17;25.42;96651.50;5095940;28;20447;-62
2023/10/01 07:32:12;;;;;;;7.32;4.28;;;;;;;28.89;25.79;96646.50;5095873;28;20048;-62
2023/10/01 07:34:40;;;;;;;7.05;4.60;;;;;;;28.58;26.47;96656.16;5095816;28;20101;-62
2023/10/01 07:37:11;;;;;;;11.63;5.13;;;;;;;28.54;26.04;96654.81;5095816;28;20054;-62
2023/10/01 07:39:46;;;;;;;7.40;4.20;;;;;;;28.63;25.70;96655.66;5095683;28;20048;-63
2023/10/01 07:42:17;;;;;;;11.05;4.30;;;;;;;28.59;25.79;96654.31;5095624;28;20131;-61
2023/10/01 07:44:45;;;;;;;16.10;4.40;;;;;;;28.80;26.22;96659.13;5095327;28;20140;-63
2023/10/01 07:47:28;;;;;;;5.88;4.10;;;;;;;29.08;25.34;96657.94;5095504;28;20052;-62
2023/10/01 07:49:56;;;;;;;6.20;3.92;;;;;;;29.28;24.51;96654.84;5095377;28;20056;-63
2023/10/01 07:52:25;;;;;;;7.55;4.18;;;;;;;29.40;24.18;96666.88;5095633;28;20132;-63
2023/10/01 07:54:55;;;;;;;6.35;4.35;;;;;;;29.43;24.35;96658.47;5095317;28;20072;-63
2023/10/01 07:57:27;;;;;;;6.47;3.88;;;;;;;29.10;24.71;96667.50;5095248;28;20043;-62
2023/10/01 07:59:56;;;;;;;5.55;4.13;;;;;;;28.89;24.75;96673.41;5095308;28;20044;-62
2023/10/01 08:02:28;;;;;;;6.55;4.38;;;;;;;28.61;24.48;96669.28;5095281;28;20048;-62
2023/10/01 08:04:58;;;;;;;10.43;4.20;;;;;;;28.57;24.70;96672.47;5094873;28;20502;-62
2023/10/01 08:07:39;;;;;;;6.35;3.92;;;;;;;28.35;25.92;96672.16;5095199;28;20052;-62
2023/10/01 08:10:19;;;;;;;11.48;4.28;;;;;;;28.28;25.63;96682.69;5094990;28;20054;-62
2023/10/01 08:15:31;;;;;;;7.15;4.47;;;;;;;28.11;24.86;96673.78;5095066;28;20182;-62
2023/10/01 08:18:19;;;;;;;6.53;4.32;;;;;;;28.26;24.76;96684.69;5094956;28;20126;-62
2023/10/01 08:20:58;;;;;;;7.07;4.50;;;;;;;28.40;24.16;96680.53;5095112;28;20397;-62
2023/10/01 08:23:31;;;;;;;9.82;4.55;;;;;;;28.43;25.84;96673.97;5094803;28;20044;-62
2023/10/01 08:25:58;;;;;;;9.02;4.18;;;;;;;28.49;25.52;96678.69;5094704;28;20044;-62
2023/10/01 08:28:29;;;;;;;6.15;3.92;;;;;;;28.61;25.29;96687.25;5094084;28;20048;-62
2023/10/01 08:31:42;;;;;;;14.85;4.82;;;;;;;28.42;25.02;96683.91;5094733;28;20417;-62
2023/10/01 08:33:51;;;;;;;9.63;4.40;;;;;;;28.64;24.45;96673.47;5094421;28;20040;-62
2023/10/01 08:36:24;;;;;;;12.27;4.05;;;;;;;28.74;24.20;96684.88;5094463;28;20040;-62
2023/10/01 08:41:50;;;;;;;9.23;4.13;;;;;;;28.49;24.11;96682.22;5094511;28;20054;-62
2023/10/01 08:44:30;;;;;;;11.90;5.30;;;;;;;28.54;24.98;96680.88;5094394;28;20051;-62
2023/10/01 08:47:21;;;;;;;13.47;5.23;;;;;;;28.68;24.96;96671.28;5094498;28;20440;-62
2023/10/01 08:49:51;;;;;;;11.65;4.45;;;;;;;29.01;24.88;96687.38;5094538;28;20292;-63
2023/10/01 08:52:25;;;;;;;6.43;4.15;;;;;;;29.08;24.51;96682.97;5094408;28;20401;-62
2023/10/01 08:54:55;;;;;;;9.40;4.43;;;;;;;29.15;24.64;96683.16;5094209;28;20485;-62
2023/10/01 08:57:37;;;;;;;11.05;4.45;;;;;;;28.98;24.20;96683.19;5094272;28;20044;-62
2023/10/01 09:00:17;;;;;;;13.80;4.60;;;;;;;28.60;24.76;96693.66;5094097;28;20126;-62
2023/10/01 09:02:51;;;;;;;15.10;4.70;;;;;;;28.10;25.54;96678.31;5094170;28;20070;-62
2023/10/01 09:05:23;;;;;;;9.45;4.38;;;;;;;28.00;26.35;96672.25;5093941;28;20043;-62
2023/10/01 09:08:14;;;;;;;7.75;3.97;;;;;;;28.09;25.67;96678.47;5094113;28;20101;-62
2023/10/01 09:10:50;;;;;;;9.02;4.38;;;;;;;28.09;25.79;96678.47;5093869;28;20048;-62
2023/10/01 09:13:21;;;;;;;6.78;3.88;;;;;;;28.15;25.00;96685.88;5093915;28;20106;-62
2023/10/01 09:15:53;;;;;;;13.38;4.53;;;;;;;27.98;24.90;96688.53;5093977;28;20059;-62
2023/10/01 09:18:23;;;;;;;14.35;4.05;;;;;;;27.86;25.03;96690.72;5094008;28;20437;-62
2023/10/01 09:21:09;;;;;;;8.43;3.85;;;;;;;27.84;26.05;96681.97;5093765;28;20044;-62
2023/10/01 09:23:55;;;;;;;9.45;4.20;;;;;;;27.82;25.41;96681.31;5093749;28;20090;-62
2023/10/01 09:26:42;;;;;;;8.05;4.20;;;;;;;27.57;26.26;96691.91;5093736;28;20050;-62
2023/10/01 09:29:25;;;;;;;7.50;4.47;;;;;;;27.25;26.40;96688.13;5093062;28;20466;-62
2023/10/01 09:31:54;;;;;;;6.65;4.05;;;;;;;27.06;26.28;96687.34;5091246;28;20048;-62
2023/10/01 09:34:33;;;;;;;10.55;4.25;;;;;;;26.84;26.29;96678.81;5093475;28;20490;-62
2023/10/01 09:37:06;;;;;;;11.80;4.33;;;;;;;26.93;26.82;96685.06;5093427;28;20094;-62
2023/10/01 09:39:38;;;;;;;11.32;4.47;;;;;;;26.63;26.92;96673.78;5093233;28;20425;-62
2023/10/01 09:42:28;;;;;;;11.73;5.22;;;;;;;26.58;26.78;96673.44;5093450;28;20048;-62
2023/10/01 09:45:09;;;;;;;9.27;4.60;;;;;;;26.47;26.81;96674.53;5093314;28;20101;-62
2023/10/01 09:47:42;;;;;;;11.13;4.20;;;;;;;26.46;26.73;96679.03;5093186;28;20302;-62
2023/10/01 09:50:15;;;;;;;15.77;4.75;;;;;;;26.25;25.88;96676.69;5093282;28;20103;-62
2023/10/01 09:52:50;;;;;;;12.68;4.65;;;;;;;25.83;27.33;96672.75;5093250;28;20048;-62
2023/10/01 09:55:26;;;;;;;17.58;4.95;;;;;;;25.78;26.67;96678.56;5093300;28;20048;-62
2023/10/01 09:58:10;;;;;;;16.60;4.70;;;;;;;25.95;26.58;96671.53;5093352;28;20044;-62
2023/10/01 10:00:44;;;;;;;6.38;4.70;;;;;;;25.93;26.52;96670.84;5093229;28;20056;-62
2023/10/01 10:03:14;;;;;;;8.02;4.65;;;;;;;25.69;26.98;96671.44;5092853;28;20045;-62
2023/10/01 10:05:42;;;;;;;9.25;4.38;;;;;;;25.90;27.79;96678.34;5092924;28;20047;-62
2023/10/01 10:08:20;;;;;;;9.20;4.78;;;;;;;25.95;27.14;96670.69;5093083;28;20048;-62
2023/10/01 10:10:52;;;;;;;7.88;4.88;;;;;;;26.00;26.28;96673.75;5093147;28;20117;-62
2023/10/01 10:13:45;;;;;;;5.82;4.43;;;;;;;25.93;26.73;96676.22;5093052;28;20101;-62
2023/10/01 10:16:32;;;;;;;9.60;4.55;;;;;;;25.78;27.09;96675.03;5092930;28;20522;-62
2023/10/01 10:19:12;;;;;;;7.43;4.00;;;;;;;25.86;27.26;96678.63;5093024;28;20044;-62
2023/10/01 10:22:16;;;;;;;8.38;4.70;;;;;;;25.86;26.99;96667.09;5093161;28;20052;-62
2023/10/01 10:24:47;;;;;;;4.60;4.13;;;;;;;25.65;27.32;96670.06;5092878;28;20052;-62
2023/10/01 10:27:36;;;;;;;8.95;4.45;;;;;;;25.73;27.54;96660.28;5092908;28;20052;-62
2023/10/01 10:30:21;;;;;;;13.75;5.00;;;;;;;25.90;27.70;96665.78;5093043;28;20083;-62
2023/10/01 10:33:39;;;;;;;10.65;4.63;;;;;;;25.92;27.66;96657.59;5092875;28;20044;-62
2023/10/01 10:36:35;;;;;;;9.00;4.40;;;;;;;25.62;28.25;96655.16;5092844;28;20051;-62
2023/10/01 10:39:15;;;;;;;8.25;4.50;;;;;;;25.72;27.89;96650.56;5092739;28;20048;-62
2023/10/01 10:42:28;;;;;;;9.15;4.60;;;;;;;25.98;27.94;96663.19;5093081;28;20488;-62
2023/10/01 10:45:21;;;;;;;14.05;3.97;;;;;;;26.14;27.57;96669.69;5080666;28;20044;-62
2023/10/01 10:47:58;;;;;;;11.25;4.35;;;;;;;26.08;28.11;96665.81;5092669;28;20101;-62
2023/10/01 10:50:48;;;;;;;14.55;4.05;;;;;;;25.98;27.73;96665.03;5093652;28;20539;-62
2023/10/01 10:53:17;;;;;;;8.52;4.05;;;;;;;25.94;27.08;96652.91;5096526;28;20113;-62
2023/10/01 10:55:55;;;;;;;10.05;4.50;;;;;;;26.09;27.52;96656.75;5096494;28;20093;-62
2023/10/01 10:58:25;;;;;;;9.90;4.32;;;;;;;26.06;27.93;96651.72;5096550;28;20134;-62
2023/10/01 11:00:55;;;;;;;9.13;4.07;;;;;;;26.07;27.75;96663.28;5096465;28;20156;-62
2023/10/01 11:03:40;;;;;;;10.45;4.75;;;;;;;25.97;27.83;96650.78;5096001;28;20070;-61
2023/10/01 11:06:18;;;;;;;13.70;4.63;;;;;;;26.12;27.91;96660.97;5096239;28;20056;-62
2023/10/01 11:08:51;;;;;;;14.68;4.10;;;;;;;26.18;27.70;96663.03;5096191;28;20462;-62
2023/10/01 11:11:27;;;;;;;6.78;4.53;;;;;;;25.77;28.26;96646.56;5096141;28;20478;-62
2023/10/01 11:14:06;;;;;;;5.07;4.22;;;;;;;25.54;29.10;96645.16;5096105;28;20127;-62
2023/10/01 11:16:37;;;;;;;7.20;4.60;;;;;;;25.34;29.25;96642.56;5096182;28;20048;-62
2023/10/01 11:21:59;;;;;;;6.22;4.65;;;;;;;25.76;29.69;96653.75;5095921;28;20101;-62
2023/10/01 11:24:31;;;;;;;8.20;4.70;;;;;;;25.98;28.08;96633.72;5095831;28;20395;-61
2023/10/01 11:27:43;;;;;;;8.73;4.00;;;;;;;26.10;27.50;96633.50;5095871;28;20108;-61
2023/10/01 11:30:16;;;;;;;9.73;4.68;;;;;;;25.54;27.59;96642.47;5096052;28;20066;-62
2023/10/01 11:33:12;;;;;;;7.57;3.92;;;;;;;24.84;28.74;96625.88;5095684;28;20069;-61
2023/10/01 11:35:59;;;;;;;6.32;4.18;;;;;;;24.82;29.64;96640.38;5095755;28;20051;-62
2023/10/01 11:38:32;;;;;;;7.32;4.18;;;;;;;24.82;29.48;96638.56;5095688;28;20059;-62
2023/10/01 11:41:13;;;;;;;7.38;4.30;;;;;;;25.02;29.42;96645.69;5095673;28;20079;-62
2023/10/01 11:43:42;;;;;;;11.35;4.53;;;;;;;25.15;29.04;96637.31;5095551;28;20052;-62
2023/10/01 11:46:24;;;;;;;9.50;4.50;;;;;;;25.44;29.10;96622.94;5095508;28;20079;-62
2023/10/01 11:48:59;;;;;;;4.40;3.95;;;;;;;25.57;28.52;96623.44;5095479;28;20051;-62
2023/10/01 11:51:38;;;;;;;10.23;4.18;;;;;;;25.68;28.75;96619.72;5095349;28;20079;-62
2023/10/01 11:54:13;;;;;;;4.28;3.75;;;;;;;25.64;28.17;96628.22;5095469;28;20083;-62
2023/10/01 11:57:04;;;;;;;6.28;4.25;;;;;;;25.64;27.98;96615.66;5095397;28;20074;-62
2023/10/01 11:59:36;;;;;;;5.30;4.07;;;;;;;25.64;27.56;96614.81;5095396;28;20054;-62
2023/10/01 12:02:20;;;;;;;10.13;4.60;;;;;;;25.63;27.60;96621.16;5095180;28;20482;-62
2023/10/01 12:04:56;;;;;;;8.43;4.68;;;;;;;25.32;27.39;96627.66;5094856;28;20040;-62
2023/10/01 12:07:26;;;;;;;5.53;4.50;;;;;;;25.31;27.76;96626.81;5095063;28;20048;-62
2023/10/01 12:09:56;;;;;;;14.20;5.05;;;;;;;25.43;27.78;96621.28;5095077;28;20131;-62
2023/10/01 12:12:31;;;;;;;12.23;4.60;;;;;;;25.51;27.65;96617.81;5095026;28;20456;-62
2023/10/01 12:17:44;;;;;;;7.43;4.80;;;;;;;25.72;27.68;96622.94;5095463;27;20520;-62
2023/10/01 12:20:22;;;;;;;10.82;4.38;;;;;;;25.79;27.08;96621.31;5094946;28;20137;-62
2023/10/01 12:23:08;;;;;;;9.52;4.80;;;;;;;25.78;26.80;96602.72;5094948;28;20417;-62
2023/10/01 12:25:44;;;;;;;12.38;4.45;;;;;;;25.84;26.67;96618.19;5094594;28;20047;-62
2023/10/01 12:28:18;;;;;;;6.35;4.40;;;;;;;25.84;25.95;96615.50;5094801;28;20044;-62
2023/10/01 12:30:46;;;;;;;7.38;3.80;;;;;;;25.77;26.31;96614.44;5094702;28;20134;-62